Plan De Guadalupe International Airport
MMIO : now visible

Airfield :











YOU CAN JOIN US ON...

 
LOGIN :

Register | Disclaimer

   EN    FR    IT 

 









Legend :    VFR   Marginal VFR   IFR   Intensive IFR   Very Intensive IFR
Visi :
Ceiling :
>= 8 km
>= 3000ft
5 to 8 km
1000 to 3000 ft
1500m to 5 km
500 to 1000 ft
800 to 1500m
200 to 500 ft
< 800m
< 200 ft
Symbols :   Thunderstorms  Fog  Heavy snow  Heavy precipitations  Wind > 20 kt






- Airport Elevation : 4778 ft
- IATA code : SLW


MMIO - Plan De Guadalupe International

METAR N/A
TAF TAF MMIO
Valid from the 07 at 06:00 until the 08 at 06:00 UTC


070437Z 0706/0806 00000KT 2SM -RA BR SCT002 OVC006
TEMPO 0711/0715 1/2SM -DZ BR VV002
FM071500 00000KT 1 1/2SM BR HZ SCT002 OVC005
FM071800 02012KT 4SM HZ SCT008 BKN020
PROB40 0721/0801 4SM -DZ BR SCT010 BKN020
FM080500 00000KT 6SM HZ BKN020
MMFR FIR / North America



MET'MAP, your aeronautical weather chart ! - Copyright ORBIFLY December 2007 - Disclaimer

ORBIFLY MET'MAP TEAM :

Programming & Development : Alexandra Zaïnal
Original concept : Baudouin d'Aumeries
Technical & hardware support : Manuel Goepfert
Assistance : Marc-Olivier Méhu




SOURCES & CREDITS :

   NOAA       Earth
Advisory